sensor_id;sensor_type;location;lat;lon;timestamp;pressure;altitude;pressure_sealevel;temperature;humidity
20455;BME280;10386;54.314;10.022;2022-09-14T00:01:11;100299.56;;;14.02;100.00
20455;BME280;10386;54.314;10.022;2022-09-14T00:03:57;100292.97;;;13.95;100.00
20455;BME280;10386;54.314;10.022;2022-09-14T00:06:26;100286.66;;;13.95;100.00
20455;BME280;10386;54.314;10.022;2022-09-14T00:08:54;100278.78;;;13.92;100.00
20455;BME280;10386;54.314;10.022;2022-09-14T00:11:23;100278.91;;;13.90;100.00
20455;BME280;10386;54.314;10.022;2022-09-14T00:13:52;100275.19;;;13.82;100.00
20455;BME280;10386;54.314;10.022;2022-09-14T00:16:25;100264.56;;;13.79;100.00
20455;BME280;10386;54.314;10.022;2022-09-14T00:18:54;100252.75;;;13.78;100.00
20455;BME280;10386;54.314;10.022;2022-09-14T00:21:22;100251.91;;;13.78;100.00
20455;BME280;10386;54.314;10.022;2022-09-14T00:23:49;100237.41;;;13.87;100.00
20455;BME280;10386;54.314;10.022;2022-09-14T00:26:19;100224.03;;;13.93;100.00
20455;BME280;10386;54.314;10.022;2022-09-14T00:28:49;100235.25;;;14.00;100.00
20455;BME280;10386;54.314;10.022;2022-09-14T00:31:17;100220.16;;;14.05;100.00
20455;BME280;10386;54.314;10.022;2022-09-14T00:33:45;100222.31;;;14.11;100.00
20455;BME280;10386;54.314;10.022;2022-09-14T00:36:16;100219.31;;;14.14;100.00
20455;BME280;10386;54.314;10.022;2022-09-14T00:38:45;100217.44;;;14.15;100.00
20455;BME280;10386;54.314;10.022;2022-09-14T00:41:16;100214.69;;;14.24;100.00
20455;BME280;10386;54.314;10.022;2022-09-14T00:44:04;100200.75;;;14.27;100.00
20455;BME280;10386;54.314;10.022;2022-09-14T00:46:35;100197.72;;;14.30;100.00
20455;BME280;10386;54.314;10.022;2022-09-14T00:49:07;100197.25;;;14.35;100.00
20455;BME280;10386;54.314;10.022;2022-09-14T00:51:38;100195.53;;;14.34;100.00
20455;BME280;10386;54.314;10.022;2022-09-14T00:54:10;100201.72;;;14.36;100.00
20455;BME280;10386;54.314;10.022;2022-09-14T00:56:37;100196.00;;;14.29;100.00
20455;BME280;10386;54.314;10.022;2022-09-14T00:59:12;100191.25;;;14.22;100.00
20455;BME280;10386;54.314;10.022;2022-09-14T01:01:40;100195.59;;;14.15;100.00
20455;BME280;10386;54.314;10.022;2022-09-14T01:04:07;100193.56;;;14.17;100.00
20455;BME280;10386;54.314;10.022;2022-09-14T01:09:28;100191.69;;;14.27;100.00
20455;BME280;10386;54.314;10.022;2022-09-14T01:15:10;100177.84;;;14.38;100.00
20455;BME280;10386;54.314;10.022;2022-09-14T01:21:11;100174.28;;;14.37;100.00
20455;BME280;10386;54.314;10.022;2022-09-14T01:23:58;100177.31;;;14.34;100.00
20455;BME280;10386;54.314;10.022;2022-09-14T01:29:30;100172.56;;;14.27;100.00
20455;BME280;10386;54.314;10.022;2022-09-14T01:32:12;100172.75;;;14.16;100.00
20455;BME280;10386;54.314;10.022;2022-09-14T01:37:43;100171.59;;;14.18;100.00
20455;BME280;10386;54.314;10.022;2022-09-14T01:40:38;100173.88;;;14.23;100.00
20455;BME280;10386;54.314;10.022;2022-09-14T01:43:15;100161.66;;;14.27;100.00
20455;BME280;10386;54.314;10.022;2022-09-14T01:45:56;100167.09;;;14.27;100.00
20455;BME280;10386;54.314;10.022;2022-09-14T01:49:02;100164.97;;;14.30;100.00
20455;BME280;10386;54.314;10.022;2022-09-14T01:51:55;100162.63;;;14.35;100.00
20455;BME280;10386;54.314;10.022;2022-09-14T01:57:11;100156.72;;;14.40;100.00
20455;BME280;10386;54.314;10.022;2022-09-14T01:59:43;100159.03;;;14.35;100.00
20455;BME280;10386;54.314;10.022;2022-09-14T02:02:22;100160.44;;;14.39;100.00
20455;BME280;10386;54.314;10.022;2022-09-14T02:04:56;100158.13;;;14.44;100.00
20455;BME280;10386;54.314;10.022;2022-09-14T02:07:27;100153.84;;;14.41;100.00
20455;BME280;10386;54.314;10.022;2022-09-14T02:09:54;100140.91;;;14.43;100.00
20455;BME280;10386;54.314;10.022;2022-09-14T02:12:22;100156.56;;;14.41;100.00
20455;BME280;10386;54.314;10.022;2022-09-14T02:14:51;100147.81;;;14.38;100.00
20455;BME280;10386;54.314;10.022;2022-09-14T02:17:18;100152.25;;;14.39;100.00
20455;BME280;10386;54.314;10.022;2022-09-14T02:19:52;100146.09;;;14.37;100.00
20455;BME280;10386;54.314;10.022;2022-09-14T02:22:20;100139.78;;;14.36;100.00
20455;BME280;10386;54.314;10.022;2022-09-14T02:24:47;100129.88;;;14.35;100.00
20455;BME280;10386;54.314;10.022;2022-09-14T02:27:14;100131.72;;;14.35;100.00
20455;BME280;10386;54.314;10.022;2022-09-14T02:29:41;100126.25;;;14.35;100.00
20455;BME280;10386;54.314;10.022;2022-09-14T02:37:23;100135.53;;;14.15;100.00
20455;BME280;10386;54.314;10.022;2022-09-14T02:40:17;100132.66;;;14.07;100.00
20455;BME280;10386;54.314;10.022;2022-09-14T02:45:54;100119.78;;;13.90;100.00
20455;BME280;10386;54.314;10.022;2022-09-14T02:51:29;100144.50;;;13.60;100.00
20455;BME280;10386;54.314;10.022;2022-09-14T02:54:15;100141.94;;;13.59;100.00
20455;BME280;10386;54.314;10.022;2022-09-14T02:56:45;100136.91;;;13.54;100.00
20455;BME280;10386;54.314;10.022;2022-09-14T02:59:13;100129.16;;;13.50;100.00
20455;BME280;10386;54.314;10.022;2022-09-14T03:01:41;100128.59;;;13.37;100.00
20455;BME280;10386;54.314;10.022;2022-09-14T03:04:08;100128.59;;;13.37;100.00
20455;BME280;10386;54.314;10.022;2022-09-14T03:06:35;100119.97;;;13.41;100.00
20455;BME280;10386;54.314;10.022;2022-09-14T03:09:02;100117.53;;;13.38;100.00
20455;BME280;10386;54.314;10.022;2022-09-14T03:11:29;100108.06;;;13.42;100.00
20455;BME280;10386;54.314;10.022;2022-09-14T03:13:59;100103.31;;;13.44;100.00
20455;BME280;10386;54.314;10.022;2022-09-14T03:16:30;100091.53;;;13.53;100.00
20455;BME280;10386;54.314;10.022;2022-09-14T03:18:58;100086.38;;;13.60;100.00
20455;BME280;10386;54.314;10.022;2022-09-14T03:21:25;100084.94;;;13.65;100.00
20455;BME280;10386;54.314;10.022;2022-09-14T03:23:52;100086.66;;;13.66;100.00
20455;BME280;10386;54.314;10.022;2022-09-14T03:26:21;100073.75;;;13.68;100.00
20455;BME280;10386;54.314;10.022;2022-09-14T03:28:53;100078.19;;;13.69;100.00
20455;BME280;10386;54.314;10.022;2022-09-14T03:31:20;100076.91;;;13.64;100.00
20455;BME280;10386;54.314;10.022;2022-09-14T03:33:58;100074.88;;;13.66;100.00
20455;BME280;10386;54.314;10.022;2022-09-14T03:36:27;100070.13;;;13.68;100.00
20455;BME280;10386;54.314;10.022;2022-09-14T03:38:56;100064.97;;;13.65;100.00
20455;BME280;10386;54.314;10.022;2022-09-14T03:41:23;100061.41;;;13.64;100.00
20455;BME280;10386;54.314;10.022;2022-09-14T03:43:50;100053.78;;;13.58;100.00
20455;BME280;10386;54.314;10.022;2022-09-14T03:46:20;100054.78;;;13.57;100.00
20455;BME280;10386;54.314;10.022;2022-09-14T03:48:47;100055.09;;;13.54;100.00
20455;BME280;10386;54.314;10.022;2022-09-14T03:51:17;100058.97;;;13.61;100.00
20455;BME280;10386;54.314;10.022;2022-09-14T03:53:45;100047.91;;;13.63;100.00
20455;BME280;10386;54.314;10.022;2022-09-14T03:56:18;100047.78;;;13.64;100.00
20455;BME280;10386;54.314;10.022;2022-09-14T03:58:47;100042.88;;;13.58;100.00
20455;BME280;10386;54.314;10.022;2022-09-14T04:01:16;100041.31;;;13.56;100.00
20455;BME280;10386;54.314;10.022;2022-09-14T04:03:44;100042.75;;;13.50;100.00
20455;BME280;10386;54.314;10.022;2022-09-14T04:06:18;100045.06;;;13.45;100.00
20455;BME280;10386;54.314;10.022;2022-09-14T04:08:46;100047.78;;;13.45;100.00
20455;BME280;10386;54.314;10.022;2022-09-14T04:11:23;100048.66;;;13.46;100.00
20455;BME280;10386;54.314;10.022;2022-09-14T04:13:51;100046.66;;;13.48;100.00
20455;BME280;10386;54.314;10.022;2022-09-14T04:16:19;100044.47;;;13.51;100.00
20455;BME280;10386;54.314;10.022;2022-09-14T04:18:47;100053.94;;;13.47;100.00
20455;BME280;10386;54.314;10.022;2022-09-14T04:21:19;100041.50;;;13.45;100.00
20455;BME280;10386;54.314;10.022;2022-09-14T04:23:47;100039.47;;;13.37;100.00
20455;BME280;10386;54.314;10.022;2022-09-14T04:26:39;100035.31;;;13.33;100.00
20455;BME280;10386;54.314;10.022;2022-09-14T04:29:09;100039.66;;;13.36;100.00
20455;BME280;10386;54.314;10.022;2022-09-14T04:31:37;100037.34;;;13.31;100.00
20455;BME280;10386;54.314;10.022;2022-09-14T04:34:06;100042.06;;;13.29;100.00
20455;BME280;10386;54.314;10.022;2022-09-14T04:36:34;100041.78;;;13.32;100.00
20455;BME280;10386;54.314;10.022;2022-09-14T04:39:01;100037.47;;;13.39;100.00
20455;BME280;10386;54.314;10.022;2022-09-14T04:41:30;100021.53;;;13.44;100.00
20455;BME280;10386;54.314;10.022;2022-09-14T04:44:00;100031.28;;;13.47;100.00
20455;BME280;10386;54.314;10.022;2022-09-14T04:46:29;100025.25;;;13.53;100.00
20455;BME280;10386;54.314;10.022;2022-09-14T04:48:59;100029.41;;;13.57;100.00
20455;BME280;10386;54.314;10.022;2022-09-14T04:51:29;100024.78;;;13.57;100.00
20455;BME280;10386;54.314;10.022;2022-09-14T04:54:04;100022.78;;;13.59;100.00
20455;BME280;10386;54.314;10.022;2022-09-14T04:56:35;100025.25;;;13.62;100.00
20455;BME280;10386;54.314;10.022;2022-09-14T04:59:04;100019.03;;;13.60;100.00
20455;BME280;10386;54.314;10.022;2022-09-14T05:01:37;100018.47;;;13.66;100.00
20455;BME280;10386;54.314;10.022;2022-09-14T05:04:07;100008.28;;;13.68;100.00
20455;BME280;10386;54.314;10.022;2022-09-14T05:06:36;100002.53;;;13.71;100.00
20455;BME280;10386;54.314;10.022;2022-09-14T05:09:05;100009.25;;;13.77;100.00
20455;BME280;10386;54.314;10.022;2022-09-14T05:11:35;100006.06;;;13.81;100.00
20455;BME280;10386;54.314;10.022;2022-09-14T05:14:04;100006.91;;;13.91;100.00
20455;BME280;10386;54.314;10.022;2022-09-14T05:16:34;100005.00;;;13.91;100.00
20455;BME280;10386;54.314;10.022;2022-09-14T05:19:10;100005.28;;;13.98;100.00
20455;BME280;10386;54.314;10.022;2022-09-14T05:21:37;100008.53;;;14.01;100.00
20455;BME280;10386;54.314;10.022;2022-09-14T05:24:09;100015.59;;;14.04;100.00
20455;BME280;10386;54.314;10.022;2022-09-14T05:26:38;100031.53;;;14.08;100.00
20455;BME280;10386;54.314;10.022;2022-09-14T05:29:05;100027.94;;;14.08;100.00
20455;BME280;10386;54.314;10.022;2022-09-14T05:31:32;100038.53;;;14.11;100.00
20455;BME280;10386;54.314;10.022;2022-09-14T05:34:01;100040.13;;;14.13;100.00
20455;BME280;10386;54.314;10.022;2022-09-14T05:36:28;100040.25;;;14.12;100.00
20455;BME280;10386;54.314;10.022;2022-09-14T05:38:55;100043.28;;;14.09;100.00
20455;BME280;10386;54.314;10.022;2022-09-14T05:41:23;100045.72;;;14.12;100.00
20455;BME280;10386;54.314;10.022;2022-09-14T05:43:50;100044.31;;;14.17;100.00
20455;BME280;10386;54.314;10.022;2022-09-14T05:46:17;100048.47;;;14.21;100.00
20455;BME280;10386;54.314;10.022;2022-09-14T05:48:48;100055.47;;;14.24;100.00
20455;BME280;10386;54.314;10.022;2022-09-14T05:51:23;100066.78;;;14.29;100.00
20455;BME280;10386;54.314;10.022;2022-09-14T05:53:52;100071.66;;;14.35;100.00
20455;BME280;10386;54.314;10.022;2022-09-14T05:56:21;100069.31;;;14.40;100.00
20455;BME280;10386;54.314;10.022;2022-09-14T05:58:48;100087.19;;;14.34;100.00
20455;BME280;10386;54.314;10.022;2022-09-14T06:01:17;100087.13;;;14.44;100.00
20455;BME280;10386;54.314;10.022;2022-09-14T06:03:46;100086.28;;;14.43;100.00
20455;BME280;10386;54.314;10.022;2022-09-14T06:06:17;100094.84;;;14.58;100.00
20455;BME280;10386;54.314;10.022;2022-09-14T06:08:45;100108.72;;;14.64;100.00
20455;BME280;10386;54.314;10.022;2022-09-14T06:11:16;100121.78;;;14.70;100.00
20455;BME280;10386;54.314;10.022;2022-09-14T06:13:43;100126.50;;;14.78;100.00
20455;BME280;10386;54.314;10.022;2022-09-14T06:16:12;100134.69;;;14.78;100.00
20455;BME280;10386;54.314;10.022;2022-09-14T06:18:42;100153.22;;;14.84;100.00
20455;BME280;10386;54.314;10.022;2022-09-14T06:21:11;100156.34;;;14.89;100.00
20455;BME280;10386;54.314;10.022;2022-09-14T06:23:40;100153.88;;;14.95;100.00
20455;BME280;10386;54.314;10.022;2022-09-14T06:26:08;100159.03;;;14.98;100.00
20455;BME280;10386;54.314;10.022;2022-09-14T06:28:35;100173.25;;;15.02;100.00
20455;BME280;10386;54.314;10.022;2022-09-14T06:31:04;100179.41;;;15.04;100.00
20455;BME280;10386;54.314;10.022;2022-09-14T06:33:33;100189.94;;;14.99;100.00
20455;BME280;10386;54.314;10.022;2022-09-14T06:36:05;100202.16;;;15.04;100.00
20455;BME280;10386;54.314;10.022;2022-09-14T06:38:38;100205.59;;;15.06;100.00
20455;BME280;10386;54.314;10.022;2022-09-14T06:41:08;100213.31;;;15.11;100.00
20455;BME280;10386;54.314;10.022;2022-09-14T06:43:37;100220.38;;;15.13;100.00
20455;BME280;10386;54.314;10.022;2022-09-14T06:46:15;100230.53;;;15.20;100.00
20455;BME280;10386;54.314;10.022;2022-09-14T06:48:47;100234.16;;;15.21;100.00
20455;BME280;10386;54.314;10.022;2022-09-14T06:51:23;100251.81;;;15.26;100.00
20455;BME280;10386;54.314;10.022;2022-09-14T06:53:51;100253.19;;;15.40;100.00
20455;BME280;10386;54.314;10.022;2022-09-14T06:56:19;100264.31;;;15.38;100.00
20455;BME280;10386;54.314;10.022;2022-09-14T06:58:47;100260.34;;;15.50;100.00
20455;BME280;10386;54.314;10.022;2022-09-14T07:01:16;100281.94;;;15.53;100.00
20455;BME280;10386;54.314;10.022;2022-09-14T07:03:45;100295.06;;;15.67;100.00
20455;BME280;10386;54.314;10.022;2022-09-14T07:06:16;100304.44;;;15.65;100.00
20455;BME280;10386;54.314;10.022;2022-09-14T07:08:43;100303.69;;;15.72;100.00
20455;BME280;10386;54.314;10.022;2022-09-14T07:11:11;100316.31;;;15.83;100.00
20455;BME280;10386;54.314;10.022;2022-09-14T07:13:39;100328.97;;;15.84;100.00
20455;BME280;10386;54.314;10.022;2022-09-14T07:16:06;100329.47;;;15.97;100.00
20455;BME280;10386;54.314;10.022;2022-09-14T07:18:35;100337.81;;;16.13;100.00
20455;BME280;10386;54.314;10.022;2022-09-14T07:21:06;100342.22;;;16.23;100.00
20455;BME280;10386;54.314;10.022;2022-09-14T07:23:35;100353.94;;;16.68;100.00
20455;BME280;10386;54.314;10.022;2022-09-14T07:28:31;100381.84;;;16.64;100.00
20455;BME280;10386;54.314;10.022;2022-09-14T07:30:59;100383.91;;;16.87;100.00
20455;BME280;10386;54.314;10.022;2022-09-14T07:33:27;100392.44;;;16.59;100.00
20455;BME280;10386;54.314;10.022;2022-09-14T07:35:53;100402.31;;;16.94;100.00
20455;BME280;10386;54.314;10.022;2022-09-14T07:38:20;100411.03;;;17.15;100.00
20455;BME280;10386;54.314;10.022;2022-09-14T07:41:11;100428.34;;;17.33;100.00
20455;BME280;10386;54.314;10.022;2022-09-14T07:43:38;100415.41;;;17.43;100.00
20455;BME280;10386;54.314;10.022;2022-09-14T07:46:05;100417.97;;;17.45;100.00
20455;BME280;10386;54.314;10.022;2022-09-14T07:48:33;100421.13;;;17.32;100.00
20455;BME280;10386;54.314;10.022;2022-09-14T07:51:02;100424.28;;;17.71;100.00
20455;BME280;10386;54.314;10.022;2022-09-14T07:53:31;100428.75;;;17.72;100.00
20455;BME280;10386;54.314;10.022;2022-09-14T07:56:00;100431.72;;;17.53;100.00
20455;BME280;10386;54.314;10.022;2022-09-14T07:58:28;100438.94;;;17.54;100.00
20455;BME280;10386;54.314;10.022;2022-09-14T08:01:02;100433.25;;;17.81;100.00
20455;BME280;10386;54.314;10.022;2022-09-14T08:03:30;100435.25;;;17.71;100.00
20455;BME280;10386;54.314;10.022;2022-09-14T08:06:08;100440.56;;;17.64;100.00
20455;BME280;10386;54.314;10.022;2022-09-14T08:08:38;100437.63;;;17.99;100.00
20455;BME280;10386;54.314;10.022;2022-09-14T08:11:32;100438.19;;;18.10;100.00
20455;BME280;10386;54.314;10.022;2022-09-14T08:14:03;100423.44;;;18.19;100.00
20455;BME280;10386;54.314;10.022;2022-09-14T08:16:32;100421.84;;;18.01;100.00
20455;BME280;10386;54.314;10.022;2022-09-14T08:19:14;100413.28;;;18.12;100.00
20455;BME280;10386;54.314;10.022;2022-09-14T08:21:43;100425.19;;;17.79;100.00
20455;BME280;10386;54.314;10.022;2022-09-14T08:24:18;100421.81;;;17.60;100.00
20455;BME280;10386;54.314;10.022;2022-09-14T08:26:46;100426.97;;;17.63;100.00
20455;BME280;10386;54.314;10.022;2022-09-14T08:29:14;100432.47;;;17.37;100.00
20455;BME280;10386;54.314;10.022;2022-09-14T08:31:42;100425.78;;;17.14;100.00
20455;BME280;10386;54.314;10.022;2022-09-14T08:34:14;100420.78;;;17.10;100.00
20455;BME280;10386;54.314;10.022;2022-09-14T08:36:42;100414.63;;;16.90;100.00
20455;BME280;10386;54.314;10.022;2022-09-14T08:39:10;100424.19;;;16.86;100.00
20455;BME280;10386;54.314;10.022;2022-09-14T08:41:58;100436.78;;;16.97;100.00
20455;BME280;10386;54.314;10.022;2022-09-14T08:44:29;100436.25;;;16.93;100.00
20455;BME280;10386;54.314;10.022;2022-09-14T08:47:02;100435.25;;;16.77;100.00
20455;BME280;10386;54.314;10.022;2022-09-14T08:50:23;100444.81;;;16.73;100.00
20455;BME280;10386;54.314;10.022;2022-09-14T08:52:51;100456.53;;;16.83;100.00
20455;BME280;10386;54.314;10.022;2022-09-14T08:58:12;100474.56;;;16.85;100.00
20455;BME280;10386;54.314;10.022;2022-09-14T09:01:08;100454.28;;;16.78;100.00
20455;BME280;10386;54.314;10.022;2022-09-14T09:06:32;100466.88;;;16.89;100.00
20455;BME280;10386;54.314;10.022;2022-09-14T09:09:16;100471.19;;;16.91;100.00
20455;BME280;10386;54.314;10.022;2022-09-14T09:11:50;100467.75;;;16.89;100.00
20455;BME280;10386;54.314;10.022;2022-09-14T09:14:21;100465.69;;;17.09;100.00
20455;BME280;10386;54.314;10.022;2022-09-14T09:16:54;100468.88;;;17.22;100.00
20455;BME280;10386;54.314;10.022;2022-09-14T09:19:29;100468.72;;;17.23;100.00
20455;BME280;10386;54.314;10.022;2022-09-14T09:22:02;100477.97;;;17.22;100.00
20455;BME280;10386;54.314;10.022;2022-09-14T09:24:41;100482.44;;;17.23;100.00
20455;BME280;10386;54.314;10.022;2022-09-14T09:27:14;100473.13;;;16.99;100.00
20455;BME280;10386;54.314;10.022;2022-09-14T09:29:41;100481.47;;;17.07;100.00
20455;BME280;10386;54.314;10.022;2022-09-14T09:32:15;100475.34;;;17.13;100.00
20455;BME280;10386;54.314;10.022;2022-09-14T09:34:47;100473.13;;;17.16;100.00
20455;BME280;10386;54.314;10.022;2022-09-14T09:37:17;100479.63;;;17.15;100.00
20455;BME280;10386;54.314;10.022;2022-09-14T09:39:45;100472.97;;;17.18;100.00
20455;BME280;10386;54.314;10.022;2022-09-14T09:42:24;100473.50;;;17.21;100.00
20455;BME280;10386;54.314;10.022;2022-09-14T09:47:34;100466.09;;;17.14;100.00
20455;BME280;10386;54.314;10.022;2022-09-14T09:50:16;100451.16;;;17.34;100.00
20455;BME280;10386;54.314;10.022;2022-09-14T09:52:51;100441.63;;;17.46;100.00
20455;BME280;10386;54.314;10.022;2022-09-14T09:55:20;100432.66;;;17.61;100.00
20455;BME280;10386;54.314;10.022;2022-09-14T09:57:48;100405.72;;;17.65;100.00
20455;BME280;10386;54.314;10.022;2022-09-14T10:00:22;100396.47;;;17.74;100.00
20455;BME280;10386;54.314;10.022;2022-09-14T10:02:51;100394.31;;;17.52;100.00
20455;BME280;10386;54.314;10.022;2022-09-14T10:05:22;100391.22;;;17.47;100.00
20455;BME280;10386;54.314;10.022;2022-09-14T10:10:24;100394.53;;;17.58;100.00
20455;BME280;10386;54.314;10.022;2022-09-14T10:12:55;100386.84;;;17.70;100.00
20455;BME280;10386;54.314;10.022;2022-09-14T10:15:26;100380.38;;;17.79;100.00
20455;BME280;10386;54.314;10.022;2022-09-14T10:20:37;100371.34;;;17.53;100.00
20455;BME280;10386;54.314;10.022;2022-09-14T10:23:22;100371.25;;;17.37;100.00
20455;BME280;10386;54.314;10.022;2022-09-14T10:31:22;100374.53;;;17.40;100.00
20455;BME280;10386;54.314;10.022;2022-09-14T10:33:56;100362.41;;;17.25;100.00
20455;BME280;10386;54.314;10.022;2022-09-14T10:36:31;100383.00;;;17.29;100.00
20455;BME280;10386;54.314;10.022;2022-09-14T10:39:16;100406.06;;;17.11;100.00
20455;BME280;10386;54.314;10.022;2022-09-14T10:42:03;100415.13;;;17.11;100.00
20455;BME280;10386;54.314;10.022;2022-09-14T10:50:12;100442.13;;;16.98;100.00
20455;BME280;10386;54.314;10.022;2022-09-14T11:07:11;100431.88;;;17.85;100.00
20455;BME280;10386;54.314;10.022;2022-09-14T11:18:16;100398.66;;;18.45;100.00
20455;BME280;10386;54.314;10.022;2022-09-14T11:26:52;100357.75;;;18.34;100.00
20455;BME280;10386;54.314;10.022;2022-09-14T11:29:44;100353.09;;;18.58;100.00
20455;BME280;10386;54.314;10.022;2022-09-14T11:32:30;100342.09;;;18.50;100.00
20455;BME280;10386;54.314;10.022;2022-09-14T11:35:11;100356.53;;;18.60;100.00
20455;BME280;10386;54.314;10.022;2022-09-14T11:37:48;100340.22;;;18.67;100.00
20455;BME280;10386;54.314;10.022;2022-09-14T11:40:29;100316.31;;;18.59;100.00
20455;BME280;10386;54.314;10.022;2022-09-14T11:43:23;100332.31;;;18.56;100.00
20455;BME280;10386;54.314;10.022;2022-09-14T11:46:01;100348.63;;;18.49;100.00
20455;BME280;10386;54.314;10.022;2022-09-14T11:48:38;100343.31;;;18.32;100.00
20455;BME280;10386;54.314;10.022;2022-09-14T11:51:35;100338.41;;;18.02;100.00
20455;BME280;10386;54.314;10.022;2022-09-14T11:54:10;100355.78;;;18.10;100.00
20455;BME280;10386;54.314;10.022;2022-09-14T11:56:42;100354.75;;;18.11;100.00
20455;BME280;10386;54.314;10.022;2022-09-14T12:10:21;100332.56;;;18.05;100.00
20455;BME280;10386;54.314;10.022;2022-09-14T12:18:19;100339.09;;;18.12;100.00
20455;BME280;10386;54.314;10.022;2022-09-14T12:20:48;100361.00;;;18.37;100.00
20455;BME280;10386;54.314;10.022;2022-09-14T12:23:25;100348.81;;;18.40;100.00
20455;BME280;10386;54.314;10.022;2022-09-14T12:26:10;100338.66;;;18.40;100.00
20455;BME280;10386;54.314;10.022;2022-09-14T12:28:41;100324.88;;;18.16;100.00
20455;BME280;10386;54.314;10.022;2022-09-14T12:34:29;100346.22;;;18.70;100.00
20455;BME280;10386;54.314;10.022;2022-09-14T12:37:01;100308.75;;;18.61;100.00
20455;BME280;10386;54.314;10.022;2022-09-14T12:39:36;100320.09;;;18.82;100.00
20455;BME280;10386;54.314;10.022;2022-09-14T12:42:25;100315.13;;;18.78;100.00
20455;BME280;10386;54.314;10.022;2022-09-14T12:44:53;100295.03;;;18.53;100.00
20455;BME280;10386;54.314;10.022;2022-09-14T12:49:52;100307.38;;;18.25;100.00
20455;BME280;10386;54.314;10.022;2022-09-14T12:52:30;100312.84;;;18.17;100.00
20455;BME280;10386;54.314;10.022;2022-09-14T12:55:19;100336.59;;;18.26;100.00
20455;BME280;10386;54.314;10.022;2022-09-14T12:58:17;100354.75;;;18.19;100.00
20455;BME280;10386;54.314;10.022;2022-09-14T13:01:13;100362.63;;;18.07;100.00
20455;BME280;10386;54.314;10.022;2022-09-14T13:03:48;100361.72;;;17.98;100.00
20455;BME280;10386;54.314;10.022;2022-09-14T13:06:16;100354.25;;;17.67;100.00
20455;BME280;10386;54.314;10.022;2022-09-14T13:08:56;100369.63;;;17.52;100.00
20455;BME280;10386;54.314;10.022;2022-09-14T13:11:29;100396.47;;;17.40;100.00
20455;BME280;10386;54.314;10.022;2022-09-14T13:13:57;100412.34;;;17.29;100.00
20455;BME280;10386;54.314;10.022;2022-09-14T13:16:46;100428.47;;;17.06;100.00
20455;BME280;10386;54.314;10.022;2022-09-14T13:19:29;100430.63;;;17.20;100.00
20455;BME280;10386;54.314;10.022;2022-09-14T13:21:59;100430.28;;;17.23;100.00
20455;BME280;10386;54.314;10.022;2022-09-14T13:24:36;100427.41;;;17.25;100.00
20455;BME280;10386;54.314;10.022;2022-09-14T13:27:20;100433.38;;;17.20;100.00
20455;BME280;10386;54.314;10.022;2022-09-14T13:32:27;100457.31;;;16.93;100.00
20455;BME280;10386;54.314;10.022;2022-09-14T13:34:54;100458.50;;;16.90;100.00
20455;BME280;10386;54.314;10.022;2022-09-14T13:37:24;100460.00;;;16.23;100.00
20455;BME280;10386;54.314;10.022;2022-09-14T13:39:53;100459.41;;;16.02;100.00
20455;BME280;10386;54.314;10.022;2022-09-14T13:42:22;100461.63;;;15.89;100.00
20455;BME280;10386;54.314;10.022;2022-09-14T13:44:51;100453.06;;;15.75;100.00
20455;BME280;10386;54.314;10.022;2022-09-14T13:47:23;100443.78;;;15.85;100.00
20455;BME280;10386;54.314;10.022;2022-09-14T13:49:52;100445.47;;;15.96;100.00
20455;BME280;10386;54.314;10.022;2022-09-14T13:55:20;100412.06;;;16.54;100.00
20455;BME280;10386;54.314;10.022;2022-09-14T13:58:04;100403.94;;;16.62;100.00
20455;BME280;10386;54.314;10.022;2022-09-14T14:00:32;100392.50;;;16.49;100.00
20455;BME280;10386;54.314;10.022;2022-09-14T14:03:02;100397.28;;;16.65;100.00
20455;BME280;10386;54.314;10.022;2022-09-14T14:05:33;100392.31;;;16.85;100.00
20455;BME280;10386;54.314;10.022;2022-09-14T14:08:26;100390.53;;;16.76;100.00
20455;BME280;10386;54.314;10.022;2022-09-14T14:10:54;100389.44;;;16.69;100.00
20455;BME280;10386;54.314;10.022;2022-09-14T14:13:32;100376.56;;;16.70;100.00
20455;BME280;10386;54.314;10.022;2022-09-14T14:16:21;100371.16;;;16.78;100.00
20455;BME280;10386;54.314;10.022;2022-09-14T14:18:55;100375.31;;;16.82;100.00
20455;BME280;10386;54.314;10.022;2022-09-14T14:21:27;100369.22;;;16.96;100.00
20455;BME280;10386;54.314;10.022;2022-09-14T14:26:50;100341.19;;;16.76;100.00
20455;BME280;10386;54.314;10.022;2022-09-14T14:29:18;100332.56;;;16.71;100.00
20455;BME280;10386;54.314;10.022;2022-09-14T14:31:45;100320.44;;;16.57;100.00
20455;BME280;10386;54.314;10.022;2022-09-14T14:34:22;100314.81;;;16.58;100.00
20455;BME280;10386;54.314;10.022;2022-09-14T14:36:50;100302.56;;;16.70;100.00
20455;BME280;10386;54.314;10.022;2022-09-14T14:39:20;100299.41;;;16.82;100.00
20455;BME280;10386;54.314;10.022;2022-09-14T14:41:48;100292.13;;;16.99;100.00
20455;BME280;10386;54.314;10.022;2022-09-14T14:44:20;100295.84;;;16.90;100.00
20455;BME280;10386;54.314;10.022;2022-09-14T14:46:50;100289.97;;;16.85;100.00
20455;BME280;10386;54.314;10.022;2022-09-14T14:49:17;100291.94;;;16.92;100.00
20455;BME280;10386;54.314;10.022;2022-09-14T14:51:48;100292.56;;;16.86;100.00
20455;BME280;10386;54.314;10.022;2022-09-14T14:54:16;100281.75;;;16.85;100.00